createdAt,value
2023-05-06T00:53:11.166Z,6.00
2023-05-06T00:55:40.725Z,6.00
2023-05-06T01:05:41.578Z,6.20
2023-05-06T01:08:29.922Z,6.20
2023-05-06T01:11:10.000Z,6.40
2023-05-06T01:16:12.846Z,6.40
2023-05-06T01:21:09.921Z,6.50
2023-05-06T01:31:47.125Z,6.70
2023-05-06T01:42:17.618Z,7.00
2023-05-06T01:47:14.530Z,7.00
2023-05-06T02:34:11.413Z,7.00
2023-05-06T03:06:17.500Z,7.10
2023-05-06T03:16:13.532Z,7.00
2023-05-06T03:21:12.985Z,7.00
2023-05-06T03:23:42.329Z,7.10
2023-05-06T03:26:09.798Z,7.10
2023-05-06T03:31:06.111Z,7.00
2023-05-06T03:33:35.177Z,7.10
2023-05-06T03:36:02.907Z,7.00
2023-05-06T03:38:30.341Z,7.10
2023-05-06T03:41:02.600Z,7.10
2023-05-06T03:43:30.638Z,7.10
2023-05-06T03:46:01.111Z,7.10
2023-05-06T03:48:29.247Z,7.10
2023-05-06T03:50:57.177Z,7.00
2023-05-06T03:53:24.739Z,7.30
2023-05-06T03:55:53.067Z,7.00
2023-05-06T03:58:20.435Z,7.10
2023-05-06T04:00:47.964Z,7.40
2023-05-06T04:03:15.299Z,7.10
2023-05-06T04:13:19.805Z,7.70
2023-05-06T04:15:49.021Z,7.10
2023-05-06T04:51:05.501Z,7.30
2023-05-06T05:01:04.430Z,7.20
2023-05-06T05:03:32.226Z,7.40
2023-05-06T05:06:00.378Z,7.40
2023-05-06T05:08:29.878Z,7.50
2023-05-06T05:10:57.471Z,7.50
2023-05-06T05:31:05.525Z,7.50
2023-05-06T05:46:02.592Z,7.70
2023-05-06T05:51:02.905Z,8.20
2023-05-06T05:55:59.388Z,7.80
2023-05-06T05:58:26.984Z,7.80
2023-05-06T06:00:58.943Z,7.80
2023-05-06T06:03:26.532Z,7.80
2023-05-06T06:05:55.610Z,7.80
2023-05-06T06:08:24.954Z,7.90
2023-05-06T06:18:25.560Z,7.60
2023-05-06T06:30:46.854Z,8.20
2023-05-06T06:35:42.965Z,8.30
2023-05-06T06:40:39.395Z,8.00
2023-05-06T06:45:54.566Z,7.40
2023-05-06T06:48:22.101Z,8.70
2023-05-06T06:50:49.854Z,7.40
2023-05-06T06:53:17.762Z,8.00
2023-05-06T06:55:46.415Z,8.60
2023-05-06T07:00:42.018Z,7.60
2023-05-06T07:03:09.436Z,7.90
2023-05-06T07:05:37.325Z,8.10
2023-05-06T07:08:04.831Z,7.80
2023-05-06T07:10:32.816Z,7.90
2023-05-06T07:13:00.280Z,7.90
2023-05-06T07:15:28.134Z,10.20
2023-05-06T07:17:55.773Z,7.90
2023-05-06T07:20:23.497Z,7.80
2023-05-06T07:22:51.117Z,7.80
2023-05-06T07:25:19.042Z,7.80
2023-05-06T07:27:46.397Z,7.70
2023-05-06T07:30:14.256Z,7.60
2023-05-06T07:32:41.603Z,7.50
2023-05-06T07:35:09.829Z,7.50
2023-05-06T07:37:37.808Z,6.90
2023-05-06T07:40:06.607Z,6.90
2023-05-06T07:42:34.138Z,7.40
2023-05-06T07:47:31.962Z,7.40
2023-05-06T07:50:00.458Z,7.30
2023-05-06T07:52:28.037Z,7.40
2023-05-06T07:54:55.789Z,7.20
2023-05-06T07:57:22.992Z,7.20
2023-05-06T07:59:51.826Z,7.30
2023-05-06T08:02:19.753Z,7.20
2023-05-06T08:04:49.588Z,7.20
2023-05-06T08:07:19.985Z,7.00
2023-05-06T08:12:16.401Z,7.10
2023-05-06T08:14:44.511Z,7.00
2023-05-06T08:17:13.393Z,6.90
2023-05-06T08:19:41.009Z,6.90
2023-05-06T08:22:08.642Z,7.00
2023-05-06T08:24:36.592Z,6.30
2023-05-06T08:27:05.533Z,6.90
2023-05-06T08:29:35.391Z,6.70
2023-05-06T08:37:03.159Z,6.70
2023-05-06T08:39:32.662Z,6.80
2023-05-06T08:42:04.677Z,6.70
2023-05-06T08:47:01.893Z,6.90
2023-05-06T08:54:27.241Z,7.10
2023-05-06T08:56:57.854Z,6.80
2023-05-06T08:59:27.258Z,6.70
2023-05-06T09:11:54.223Z,6.80
2023-05-06T09:14:22.307Z,6.80
2023-05-06T09:16:52.551Z,6.90
2023-05-06T09:19:21.974Z,6.80
2023-05-06T09:21:51.510Z,6.80
2023-05-06T09:26:47.874Z,6.90
2023-05-06T09:31:46.868Z,11.00
2023-05-06T09:34:15.688Z,7.00
2023-05-06T09:39:11.860Z,7.80
2023-05-06T09:54:01.447Z,7.10
2023-05-06T09:56:31.592Z,7.20
2023-05-06T09:59:02.315Z,7.20
2023-05-06T10:01:36.656Z,7.20
2023-05-06T10:04:09.113Z,7.20
2023-05-06T10:06:40.013Z,7.20
2023-05-06T10:09:14.194Z,7.30
2023-05-06T10:11:43.455Z,7.10
2023-05-06T10:14:12.674Z,8.00
2023-05-06T10:16:41.807Z,10.10
2023-05-06T10:21:42.809Z,7.50
2023-05-06T10:24:13.630Z,7.50
2023-05-06T10:26:42.959Z,7.60
2023-05-06T10:29:11.632Z,7.60
2023-05-06T10:31:46.695Z,7.50
2023-05-06T10:34:18.360Z,7.50
2023-05-06T10:44:10.422Z,7.60
2023-05-06T10:47:01.441Z,7.60
2023-05-06T10:49:29.393Z,7.80
2023-05-06T10:52:12.040Z,7.60
2023-05-06T10:54:51.267Z,7.70
2023-05-06T11:02:20.524Z,7.50
2023-05-06T11:04:59.963Z,7.50
2023-05-06T11:07:28.652Z,7.50
2023-05-06T11:10:01.410Z,7.60
2023-05-06T11:12:52.901Z,7.50
2023-05-06T11:15:27.026Z,7.60
2023-05-06T11:17:56.396Z,7.50
2023-05-06T11:20:26.567Z,7.50
2023-05-06T11:25:45.669Z,7.50
2023-05-06T11:28:15.942Z,6.20
2023-05-06T11:30:53.683Z,8.80
2023-05-06T11:33:27.298Z,7.60
2023-05-06T11:35:55.741Z,7.50
2023-05-06T11:38:23.258Z,7.70
2023-05-06T11:40:50.816Z,7.50
2023-05-06T11:45:48.629Z,7.90
2023-05-06T11:48:18.644Z,8.10
2023-05-06T11:50:49.581Z,7.80
2023-05-06T11:53:19.506Z,7.90
2023-05-06T11:55:48.497Z,7.80
2023-05-06T11:58:19.940Z,7.90
2023-05-06T12:00:54.756Z,7.90
2023-05-06T12:03:24.387Z,8.00
2023-05-06T12:05:52.698Z,8.00
2023-05-06T12:08:34.958Z,8.00
2023-05-06T12:11:05.198Z,8.00
2023-05-06T12:13:35.788Z,9.70
2023-05-06T12:16:05.161Z,8.10
2023-05-06T12:18:33.293Z,8.20
2023-05-06T12:21:04.371Z,9.30
2023-05-06T12:23:32.296Z,8.10
2023-05-06T12:26:05.219Z,8.10
2023-05-06T12:28:35.453Z,8.10
2023-05-06T12:31:21.921Z,8.10
2023-05-06T12:33:50.698Z,8.00
2023-05-06T12:36:19.745Z,8.10
2023-05-06T12:38:52.281Z,8.20
2023-05-06T12:41:21.620Z,8.20
2023-05-06T12:43:49.539Z,8.30
2023-05-06T12:46:17.414Z,8.20
2023-05-06T12:49:02.058Z,8.20
2023-05-06T12:51:31.709Z,8.20
2023-05-06T12:54:00.288Z,8.20
2023-05-06T12:56:27.866Z,8.30
2023-05-06T12:58:57.950Z,8.30
2023-05-06T13:01:26.752Z,8.20
2023-05-06T13:03:59.469Z,8.20
2023-05-06T13:06:27.074Z,8.20
2023-05-06T13:08:54.831Z,9.00
2023-05-06T13:11:22.587Z,8.10
2023-05-06T13:13:51.677Z,8.40
2023-05-06T13:16:20.264Z,8.10
2023-05-06T13:21:16.562Z,8.10
2023-05-06T13:23:47.723Z,8.10
2023-05-06T13:26:16.271Z,8.10
2023-05-06T13:28:44.773Z,9.20
2023-05-06T13:31:13.680Z,8.20
2023-05-06T13:33:42.903Z,8.20
2023-05-06T13:36:11.049Z,8.20
2023-05-06T13:38:39.769Z,8.10
2023-05-06T13:41:09.203Z,8.20
2023-05-06T13:43:38.772Z,8.30
2023-05-06T13:46:09.032Z,8.40
2023-05-06T13:51:06.395Z,8.40
2023-05-06T13:53:34.610Z,8.40
2023-05-06T13:56:04.149Z,10.60
2023-05-06T14:01:02.257Z,8.40
2023-05-06T14:05:59.264Z,8.90
2023-05-06T14:08:28.508Z,8.60
2023-05-06T14:15:56.372Z,8.30
2023-05-06T14:18:26.811Z,8.30
2023-05-06T14:20:57.067Z,8.30
2023-05-06T14:23:26.633Z,7.90
2023-05-06T14:25:55.484Z,8.50
2023-05-06T14:33:21.681Z,8.60
2023-05-06T14:35:52.885Z,8.30
2023-05-06T14:38:21.512Z,8.50
2023-05-06T14:40:51.449Z,8.60
2023-05-06T14:43:20.841Z,8.60
2023-05-06T14:45:48.195Z,8.70
2023-05-06T14:48:16.192Z,8.70
2023-05-06T14:50:43.677Z,8.70
2023-05-06T14:53:11.281Z,8.70
2023-05-06T14:58:06.909Z,8.60
2023-05-06T15:00:34.489Z,8.60
2023-05-06T15:03:02.522Z,8.60
2023-05-06T15:05:30.240Z,8.70
2023-05-06T15:07:58.136Z,8.60
2023-05-06T15:10:26.163Z,8.70
2023-05-06T15:12:54.326Z,8.40
2023-05-06T15:15:22.897Z,8.50
2023-05-06T15:17:52.695Z,8.40
2023-05-06T15:20:20.782Z,8.40
2023-05-06T15:22:48.665Z,8.40
2023-05-06T15:25:33.517Z,8.30
2023-05-06T15:28:05.409Z,8.20
2023-05-06T15:30:32.784Z,8.20
2023-05-06T15:33:02.989Z,8.30
2023-05-06T15:35:32.161Z,8.20
2023-05-06T15:38:02.626Z,8.20
2023-05-06T15:40:31.012Z,8.20
2023-05-06T15:42:59.776Z,8.20
2023-05-06T15:45:28.056Z,8.30
2023-05-06T15:50:32.857Z,8.30
2023-05-06T15:53:02.865Z,8.30
2023-05-06T15:55:35.149Z,8.30
2023-05-06T15:58:12.880Z,8.30
2023-05-06T16:00:41.954Z,8.20
2023-05-06T16:03:12.593Z,8.20
2023-05-06T16:05:40.768Z,7.90
2023-05-06T16:08:09.897Z,8.30
2023-05-06T16:10:38.664Z,8.20
2023-05-06T16:13:06.330Z,8.20
2023-05-06T16:15:35.646Z,8.50
2023-05-06T16:18:03.756Z,9.00
2023-05-06T16:20:33.098Z,9.10
2023-05-06T16:23:00.973Z,9.40
2023-05-06T16:25:28.556Z,8.20
2023-05-06T16:27:56.422Z,8.30
2023-05-06T16:30:26.510Z,8.10
2023-05-06T16:32:54.359Z,8.10
2023-05-06T16:35:21.767Z,8.10
2023-05-06T16:37:49.708Z,8.10
2023-05-06T16:40:21.304Z,8.10
2023-05-06T16:42:50.582Z,8.30
2023-05-06T16:50:14.839Z,7.80
2023-05-06T16:52:42.841Z,8.10
2023-05-06T17:00:08.487Z,8.10
2023-05-06T17:10:00.789Z,8.40
2023-05-06T17:17:28.795Z,7.50
2023-05-06T17:19:57.772Z,8.00
2023-05-06T19:11:18.265Z,7.40
2023-05-06T19:31:10.686Z,7.30
2023-05-06T19:55:56.133Z,7.20
2023-05-06T20:05:49.840Z,7.50
2023-05-06T20:10:46.552Z,7.00
2023-05-06T20:28:07.244Z,7.00
2023-05-06T20:38:07.097Z,6.50
2023-05-06T20:40:38.236Z,7.20
2023-05-06T20:50:31.819Z,7.20
2023-05-06T20:53:01.030Z,7.00
2023-05-06T20:55:28.555Z,7.00
2023-05-06T21:02:53.524Z,7.00
2023-05-06T21:12:49.374Z,6.80
2023-05-06T21:37:30.712Z,6.50
2023-05-06T21:42:26.066Z,6.20
2023-05-06T21:47:21.528Z,6.20
2023-05-06T21:49:48.892Z,5.70
2023-05-06T21:52:16.539Z,6.50
2023-05-06T21:54:46.291Z,6.20
2023-05-06T21:57:13.799Z,5.90
2023-05-06T21:59:40.994Z,7.00
2023-05-06T22:02:08.548Z,5.70
2023-05-06T22:14:30.264Z,6.10
2023-05-06T22:17:01.860Z,6.10
2023-05-06T22:19:29.061Z,6.10
2023-05-06T22:21:57.653Z,6.20
2023-05-06T22:29:21.303Z,5.90
2023-05-06T22:31:48.798Z,5.90
2023-05-06T22:34:15.938Z,5.80
2023-05-06T22:36:43.299Z,5.70
2023-05-06T22:53:59.713Z,5.40
2023-05-06T23:16:12.298Z,4.90
2023-05-06T23:28:31.253Z,4.60
2023-05-06T23:35:54.528Z,4.40
2023-05-06T23:50:40.566Z,3.80
2023-05-06T23:53:08.063Z,4.00
2023-05-06T23:55:35.866Z,3.90
2023-05-06T23:58:03.311Z,4.90
